หน้าหลัก
METAR-TAF:

METAR-TAF

ท่าอากาศยาน :

หมู่เกาะโคโคส, ออสเตรเลีย

ละติจูด: 12-11S, ลองจิจูด: 096-49E, ความสูง: 3 ม.

การสังเกตสภาพอากาศปัจจุบัน

รายงานได้ทำขึ้นเมื่อ 49 นาทีที่แล้ว ณ เวลา 00:30 UTC
ลม 6 นอตจากตะวันออก
อุณหภูมิ 29°C
ความชื้น 79%
ความกดอากาศ 1013 hPa
ทัศนวิสัย 10 กม. หรือมากกว่า

METAR: YPCC 230030Z AUTO 10006KT 9999 // NCD 29/25 Q1013 RF00.0/000.0

เวลา: 07:49 (01:19 UTC)

การพยากรณ์

รายงานได้ทำขึ้นเมื่อ 2 ชั่วโมงและ 7 นาทีที่แล้ว ณ เวลา 23:12 UTC
การพยากรณ์มีผลตั้งแต่วันที่ 23 ณ เวลา 00 UTC จนถึงวันที่ 24 ณ เวลา 00 UTC
ลม 10 นอตจากตะวันออก/ตะวันออกเฉียงใต้
ทัศนวิสัย 10 กม. หรือมากกว่า
มีเมฆกระจายเป็นบางส่วนที่ความสูง 2500 ฟุต

TAF: YPCC 222312Z 2300/2400 12010KT 9999 SCT025

สังเกตการณ์สภาพอากาศและพยากรณ์อากาศของสนามบินมากกว่า 4000 แห่ง (รายงาน METAR และ TAF).

สถานีที่ดูได้จะแสดงไว้ด้วยจุดสีเหลืองและสีแดงบนแผนที่.

เลื่อนเมาส์ไปเหนือจุดเพื่อดูชื่อสถานี.

แล้วคลิกเพื่อดูสังเกตการณ์และการพยากรณ์สภาพอากาศ.

ในการเปลี่ยนแผนที่: คลิกที่ปุ่มสีเขียวที่มีกากบาทสีดำเพื่อซูมเข้า; ที่ปุ่มสีเขียวที่มีขีดเพื่อซูมออก; หรือที่ลูกศรสีเขียวเพื่อไปยังแผนที่ที่อยู่ติดกัน.


METAR-TAF: